createdAt,value
2022-12-01T00:01:15.454Z,41.95
2022-12-01T00:03:43.214Z,42.54
2022-12-01T00:06:12.734Z,42.38
2022-12-01T00:08:39.775Z,42.70
2022-12-01T00:11:10.615Z,42.80
2022-12-01T00:13:39.318Z,42.75
2022-12-01T00:16:11.766Z,42.82
2022-12-01T00:18:39.054Z,42.57
2022-12-01T00:21:06.834Z,42.75
2022-12-01T00:23:33.954Z,42.48
2022-12-01T00:26:04.374Z,42.75
2022-12-01T00:28:31.414Z,42.41
2022-12-01T00:31:00.021Z,42.82
2022-12-01T00:33:27.154Z,42.42
2022-12-01T00:35:58.794Z,42.40
2022-12-01T00:38:26.015Z,42.59
2022-12-01T00:40:53.495Z,42.69
2022-12-01T00:43:20.773Z,42.53
2022-12-01T00:45:48.092Z,42.64
2022-12-01T00:48:16.795Z,42.91
2022-12-01T00:50:44.474Z,42.39
2022-12-01T00:53:11.675Z,42.57
2022-12-01T00:55:38.934Z,42.18
2022-12-01T00:58:06.374Z,42.61
2022-12-01T01:00:33.654Z,42.28
2022-12-01T01:03:00.754Z,42.55
2022-12-01T01:05:29.355Z,42.61
2022-12-01T01:07:56.535Z,42.41
2022-12-01T01:10:23.734Z,42.52
2022-12-01T01:12:50.780Z,42.84
2022-12-01T01:15:18.008Z,42.98
2022-12-01T01:17:45.115Z,42.72
2022-12-01T01:20:13.048Z,42.30
2022-12-01T01:22:41.628Z,42.52
2022-12-01T01:25:09.268Z,43.04
2022-12-01T01:27:36.368Z,42.55
2022-12-01T01:30:04.908Z,42.63
2022-12-01T01:32:32.048Z,54.73
2022-12-01T01:34:59.109Z,53.30
2022-12-01T01:37:26.189Z,54.24
2022-12-01T01:39:54.688Z,50.22
2022-12-01T01:42:21.708Z,53.22
2022-12-01T01:44:52.549Z,47.46
2022-12-01T01:47:24.813Z,45.38
2022-12-01T01:49:53.747Z,47.69
2022-12-01T01:52:23.009Z,45.46
2022-12-01T01:54:54.128Z,44.91
2022-12-01T01:57:28.868Z,43.98
2022-12-01T02:00:02.650Z,43.69
2022-12-01T02:02:30.012Z,43.09
2022-12-01T02:05:02.668Z,39.37
2022-12-01T02:07:30.214Z,40.46
2022-12-01T02:09:58.573Z,39.20
2022-12-01T02:13:04.526Z,39.66
2022-12-01T02:15:39.247Z,38.20
2022-12-01T02:18:22.849Z,39.14
2022-12-01T02:21:16.091Z,36.00
2022-12-01T02:24:20.147Z,37.27
2022-12-01T02:26:53.188Z,38.93
2022-12-01T02:30:01.989Z,38.28
2022-12-01T02:32:46.008Z,36.80
2022-12-01T02:35:22.688Z,37.68
2022-12-01T02:38:03.627Z,37.34
2022-12-01T02:40:39.949Z,35.70
2022-12-01T02:43:17.410Z,36.50
2022-12-01T02:45:52.758Z,37.28
2022-12-01T02:48:26.960Z,37.42
2022-12-01T02:51:01.027Z,35.01
2022-12-01T02:53:28.506Z,36.67
2022-12-01T02:55:58.978Z,36.39
2022-12-01T02:58:26.526Z,37.21
2022-12-01T03:01:10.845Z,37.70
2022-12-01T03:03:59.006Z,35.00
2022-12-01T03:06:41.967Z,36.91
2022-12-01T03:09:23.087Z,36.52
2022-12-01T03:12:04.886Z,37.38
2022-12-01T03:14:43.414Z,36.46
2022-12-01T03:17:18.746Z,36.39
2022-12-01T03:19:53.967Z,36.90
2022-12-01T03:22:26.667Z,36.70
2022-12-01T03:24:57.568Z,35.79
2022-12-01T03:27:30.406Z,36.29
2022-12-01T03:30:02.707Z,35.87
2022-12-01T03:32:37.187Z,37.00
2022-12-01T03:35:12.564Z,35.66
2022-12-01T03:37:45.266Z,36.44
2022-12-01T03:40:18.046Z,35.96
2022-12-01T03:42:50.068Z,36.29
2022-12-01T03:45:24.547Z,36.05
2022-12-01T03:47:51.743Z,35.98
2022-12-01T03:50:20.906Z,35.99
2022-12-01T03:53:01.009Z,36.04
2022-12-01T03:55:30.430Z,35.57
2022-12-01T03:58:05.666Z,35.26
2022-12-01T04:00:34.069Z,36.17
2022-12-01T04:03:03.457Z,34.05
2022-12-01T04:05:34.208Z,35.05
2022-12-01T04:08:01.990Z,35.42
2022-12-01T04:10:29.188Z,34.73
2022-12-01T04:12:56.311Z,36.03
2022-12-01T04:15:23.367Z,35.17
2022-12-01T04:17:50.368Z,36.46
2022-12-01T04:20:18.006Z,36.28
2022-12-01T04:22:46.467Z,36.05
2022-12-01T04:25:13.569Z,35.89
2022-12-01T04:27:40.908Z,34.63
2022-12-01T04:30:09.166Z,35.17
2022-12-01T04:32:38.406Z,35.89
2022-12-01T04:35:06.587Z,34.62
2022-12-01T04:37:33.709Z,34.75
2022-12-01T04:40:02.327Z,35.58
2022-12-01T04:42:29.947Z,35.33
2022-12-01T04:44:57.006Z,34.60
2022-12-01T04:47:24.028Z,34.91
2022-12-01T04:49:51.286Z,35.28
2022-12-01T04:52:18.520Z,36.18
2022-12-01T04:54:45.581Z,35.38
2022-12-01T04:57:14.104Z,34.16
2022-12-01T04:59:41.181Z,35.07
2022-12-01T05:02:08.295Z,35.33
2022-12-01T05:04:35.481Z,34.72
2022-12-01T05:07:02.621Z,35.49
2022-12-01T05:09:29.742Z,35.47
2022-12-01T05:11:56.841Z,35.07
2022-12-01T05:14:25.401Z,33.52
2022-12-01T05:16:52.480Z,34.88
2022-12-01T05:19:19.560Z,34.75
2022-12-01T05:21:49.112Z,34.79
2022-12-01T05:24:17.464Z,34.40
2022-12-01T05:26:45.740Z,34.91
2022-12-01T05:29:13.983Z,34.10
2022-12-01T05:31:42.578Z,33.74
2022-12-01T05:34:09.940Z,34.75
2022-12-01T05:36:37.181Z,33.39
2022-12-01T05:39:04.684Z,34.17
2022-12-01T05:41:31.823Z,34.06
2022-12-01T05:43:58.940Z,33.37
2022-12-01T05:46:26.169Z,34.12
2022-12-01T05:48:54.882Z,34.37
2022-12-01T05:51:22.091Z,34.25
2022-12-01T05:53:49.162Z,33.17
2022-12-01T05:56:16.381Z,34.05
2022-12-01T05:58:43.460Z,33.35
2022-12-01T06:01:10.481Z,33.22
2022-12-01T06:03:37.601Z,33.64
2022-12-01T06:06:06.362Z,34.62
2022-12-01T06:08:33.485Z,34.79
2022-12-01T06:11:01.003Z,34.86
2022-12-01T06:13:28.102Z,32.26
2022-12-01T06:15:59.821Z,33.50
2022-12-01T06:18:28.282Z,33.98
2022-12-01T06:20:55.381Z,33.69
2022-12-01T06:23:28.905Z,33.33
2022-12-01T06:25:57.443Z,34.74
2022-12-01T06:28:24.563Z,34.82
2022-12-01T06:30:51.643Z,33.51
2022-12-01T06:33:18.763Z,34.41
2022-12-01T06:35:45.804Z,34.46
2022-12-01T06:38:12.863Z,33.60
2022-12-01T06:40:43.505Z,33.18
2022-12-01T06:43:10.563Z,33.68
2022-12-01T06:45:37.636Z,33.11
2022-12-01T06:48:04.882Z,34.67
2022-12-01T06:50:32.004Z,33.74
2022-12-01T06:52:59.388Z,34.99
2022-12-01T06:55:26.701Z,33.30
2022-12-01T06:57:56.083Z,34.52
2022-12-01T07:00:23.522Z,33.51
2022-12-01T07:02:50.739Z,32.31
2022-12-01T07:05:17.921Z,33.59
2022-12-01T07:07:45.024Z,32.75
2022-12-01T07:10:14.161Z,33.55
2022-12-01T07:12:41.405Z,33.95
2022-12-01T07:15:11.082Z,33.99
2022-12-01T07:17:38.202Z,35.20
2022-12-01T07:20:06.722Z,33.50
2022-12-01T07:22:33.784Z,33.90
2022-12-01T07:25:00.845Z,33.89
2022-12-01T07:27:30.302Z,31.72
2022-12-01T07:29:57.416Z,32.04
2022-12-01T07:32:26.082Z,31.93
2022-12-01T07:34:53.163Z,31.97
2022-12-01T07:37:20.203Z,32.58
2022-12-01T07:39:47.511Z,31.79
2022-12-01T07:42:14.802Z,32.25
2022-12-01T07:44:41.882Z,33.14
2022-12-01T07:47:08.984Z,33.61
2022-12-01T07:49:38.102Z,33.61
2022-12-01T07:52:05.304Z,33.77
2022-12-01T07:54:32.423Z,33.67
2022-12-01T07:56:59.500Z,33.88
2022-12-01T07:59:26.545Z,33.80
2022-12-01T08:01:53.770Z,33.49
2022-12-01T08:04:20.924Z,34.06
2022-12-01T08:06:49.422Z,33.60
2022-12-01T08:09:16.462Z,32.73
2022-12-01T08:11:43.604Z,33.88
2022-12-01T08:14:10.663Z,34.70
2022-12-01T08:16:37.822Z,34.08
2022-12-01T08:19:04.943Z,34.52
2022-12-01T08:21:32.024Z,32.97
2022-12-01T08:24:00.548Z,33.63
2022-12-01T08:26:27.762Z,34.27
2022-12-01T08:28:55.265Z,33.65
2022-12-01T08:31:25.321Z,33.64
2022-12-01T08:33:53.525Z,33.29
2022-12-01T08:36:21.867Z,32.91
2022-12-01T08:38:51.062Z,34.69
2022-12-01T08:41:20.582Z,33.14
2022-12-01T08:44:02.955Z,34.24
2022-12-01T08:46:34.087Z,33.88
2022-12-01T08:49:01.604Z,33.65
2022-12-01T08:51:29.383Z,34.18
2022-12-01T08:53:58.327Z,33.63
2022-12-01T08:56:30.209Z,33.51
2022-12-01T08:58:57.565Z,33.95
2022-12-01T09:01:24.917Z,33.52
2022-12-01T09:03:52.062Z,33.65
2022-12-01T09:06:20.443Z,33.09
2022-12-01T09:08:47.952Z,32.61
2022-12-01T09:11:17.207Z,33.21
2022-12-01T09:13:51.346Z,32.38
2022-12-01T09:16:21.860Z,32.96
2022-12-01T09:18:49.218Z,33.43
2022-12-01T09:21:20.010Z,32.73
2022-12-01T09:23:47.902Z,31.73
2022-12-01T09:26:15.724Z,33.08
2022-12-01T09:28:42.792Z,33.61
2022-12-01T09:31:13.176Z,32.43
2022-12-01T09:33:41.623Z,31.71
2022-12-01T09:36:10.146Z,32.68
2022-12-01T09:38:38.863Z,32.21
2022-12-01T09:41:12.157Z,32.80
2022-12-01T09:43:43.829Z,32.27
2022-12-01T09:46:20.110Z,31.60
2022-12-01T09:48:51.311Z,32.76
2022-12-01T09:51:21.701Z,32.69
2022-12-01T09:53:51.663Z,32.36
2022-12-01T09:56:21.764Z,32.91
2022-12-01T09:58:53.401Z,32.81
2022-12-01T10:01:31.595Z,32.80
2022-12-01T10:04:07.942Z,33.52
2022-12-01T10:06:42.389Z,33.58
2022-12-01T10:09:22.183Z,32.67
2022-12-01T10:11:55.224Z,32.31
2022-12-01T10:14:22.349Z,32.53
2022-12-01T10:17:03.462Z,32.95
2022-12-01T10:19:42.554Z,33.17
2022-12-01T10:22:45.737Z,33.32
2022-12-01T10:25:22.262Z,32.14
2022-12-01T10:28:12.596Z,33.35
2022-12-01T10:30:50.064Z,31.39
2022-12-01T10:33:24.450Z,32.84
2022-12-01T10:35:52.737Z,32.90
2022-12-01T10:38:26.961Z,33.68
2022-12-01T10:40:54.663Z,33.21
2022-12-01T10:43:32.804Z,33.61
2022-12-01T10:46:08.644Z,33.81
2022-12-01T10:48:53.323Z,33.37
2022-12-01T10:51:20.382Z,32.91
2022-12-01T10:53:47.421Z,33.35
2022-12-01T10:56:17.883Z,32.60
2022-12-01T10:58:49.476Z,30.75
2022-12-01T11:01:20.526Z,31.73
2022-12-01T11:03:55.065Z,32.78
2022-12-01T11:06:26.483Z,31.96
2022-12-01T11:08:57.481Z,32.79
2022-12-01T11:11:33.024Z,33.42
2022-12-01T11:14:04.783Z,33.56
2022-12-01T11:16:41.983Z,34.57
2022-12-01T11:19:37.718Z,34.50
2022-12-01T11:22:20.902Z,34.34
2022-12-01T11:25:01.344Z,34.73
2022-12-01T11:27:34.237Z,35.28
2022-12-01T11:30:05.538Z,34.87
2022-12-01T11:32:35.857Z,34.69
2022-12-01T11:35:14.852Z,35.01
2022-12-01T11:38:13.305Z,35.67
2022-12-01T11:40:47.674Z,35.50
2022-12-01T11:43:25.474Z,36.07
2022-12-01T11:45:56.129Z,35.51
2022-12-01T11:48:26.133Z,35.98
2022-12-01T11:51:07.509Z,35.46
2022-12-01T11:53:36.877Z,35.50
2022-12-01T11:56:22.978Z,35.81
2022-12-01T11:58:58.114Z,36.53
2022-12-01T12:01:39.935Z,36.14
2022-12-01T12:04:26.314Z,35.41
2022-12-01T12:07:05.574Z,35.53
2022-12-01T12:09:46.573Z,36.40
2022-12-01T12:12:28.723Z,35.65
2022-12-01T12:15:11.715Z,35.82
2022-12-01T12:18:02.431Z,36.38
2022-12-01T12:20:45.752Z,36.34
2022-12-01T12:23:39.574Z,35.98
2022-12-01T12:26:17.116Z,36.16
2022-12-01T12:28:58.614Z,35.85
2022-12-01T12:31:35.675Z,36.76
2022-12-01T12:34:19.614Z,36.91
2022-12-01T12:36:59.434Z,35.58
2022-12-01T12:39:54.290Z,35.85
2022-12-01T12:42:33.777Z,35.99
2022-12-01T12:45:14.359Z,36.56
2022-12-01T12:48:00.604Z,37.35
2022-12-01T12:50:38.769Z,36.55
2022-12-01T12:53:14.566Z,35.69
2022-12-01T12:55:48.033Z,36.43
2022-12-01T12:58:22.609Z,36.23
2022-12-01T13:00:55.826Z,36.40
2022-12-01T13:03:34.607Z,36.33
2022-12-01T13:06:07.187Z,35.72
2022-12-01T13:08:44.386Z,35.58
2022-12-01T13:11:20.228Z,35.21
2022-12-01T13:13:57.726Z,35.24
2022-12-01T13:16:32.265Z,35.95
2022-12-01T13:19:05.855Z,36.20
2022-12-01T13:21:39.492Z,36.55
2022-12-01T13:24:13.125Z,36.00
2022-12-01T13:26:47.090Z,35.41
2022-12-01T13:29:18.285Z,35.84
2022-12-01T13:31:48.686Z,36.32
2022-12-01T13:34:25.144Z,35.53
2022-12-01T13:36:55.805Z,35.99
2022-12-01T13:39:25.906Z,35.56
2022-12-01T13:42:07.985Z,35.32
2022-12-01T13:44:42.025Z,36.31
2022-12-01T13:47:32.685Z,35.96
2022-12-01T13:50:32.902Z,35.65
2022-12-01T13:53:11.585Z,36.84
2022-12-01T13:55:57.538Z,36.51
2022-12-01T13:58:42.725Z,37.02
2022-12-01T14:01:47.094Z,37.03
2022-12-01T14:04:32.565Z,37.13
2022-12-01T14:07:37.451Z,37.46
2022-12-01T14:10:27.450Z,36.59
2022-12-01T14:12:59.749Z,37.85
2022-12-01T14:15:39.226Z,36.47
2022-12-01T14:18:36.337Z,36.88
2022-12-01T14:21:06.946Z,36.31
2022-12-01T14:23:37.010Z,37.38
2022-12-01T14:26:16.049Z,36.43
2022-12-01T14:29:08.885Z,37.23
2022-12-01T14:32:20.485Z,37.53
2022-12-01T14:34:55.827Z,37.13
2022-12-01T14:37:29.247Z,37.79
2022-12-01T14:40:06.026Z,36.88
2022-12-01T14:42:38.211Z,36.90
2022-12-01T14:45:07.617Z,37.70
2022-12-01T14:47:43.785Z,37.65
2022-12-01T14:50:19.825Z,37.01
2022-12-01T14:52:53.025Z,37.78
2022-12-01T14:55:23.991Z,37.28
2022-12-01T14:57:59.524Z,37.82
2022-12-01T15:00:26.790Z,37.67
2022-12-01T15:02:57.228Z,37.81
2022-12-01T15:05:28.967Z,37.83
2022-12-01T15:08:18.681Z,37.13
2022-12-01T15:10:52.666Z,37.38
2022-12-01T15:13:23.926Z,37.63
2022-12-01T15:15:54.914Z,38.21
2022-12-01T15:18:24.869Z,37.81
2022-12-01T15:20:59.909Z,37.41
2022-12-01T15:23:27.137Z,37.29
2022-12-01T15:25:55.991Z,37.18
2022-12-01T15:28:31.208Z,37.30
2022-12-01T15:31:00.565Z,36.99
2022-12-01T15:33:36.727Z,37.61
2022-12-01T15:36:08.891Z,37.70
2022-12-01T15:38:39.047Z,37.76
2022-12-01T15:43:58.368Z,37.32
2022-12-01T15:46:30.492Z,37.85
2022-12-01T15:49:08.730Z,37.36
2022-12-01T15:51:37.485Z,37.85
2022-12-01T15:54:05.107Z,37.44
2022-12-01T15:56:35.925Z,37.29
2022-12-01T15:59:15.025Z,38.17
2022-12-01T16:01:44.550Z,38.03
2022-12-01T16:04:19.825Z,38.22
2022-12-01T16:06:58.189Z,38.00
2022-12-01T16:09:31.827Z,37.76
2022-12-01T16:12:18.805Z,38.35
2022-12-01T16:14:56.325Z,37.76
2022-12-01T16:17:24.545Z,38.43
2022-12-01T16:20:24.165Z,38.01
2022-12-01T16:22:57.108Z,38.08
2022-12-01T16:25:32.687Z,38.07
2022-12-01T16:28:01.426Z,38.45
2022-12-01T16:30:35.684Z,38.92
2022-12-01T16:33:05.585Z,38.38
2022-12-01T16:35:34.088Z,37.80
2022-12-01T16:38:12.886Z,37.93
2022-12-01T16:40:41.505Z,38.44
2022-12-01T16:43:13.865Z,38.64
2022-12-01T16:45:41.038Z,38.23
2022-12-01T16:48:09.529Z,38.20
2022-12-01T16:50:36.928Z,38.66
2022-12-01T16:53:05.485Z,38.84
2022-12-01T16:55:41.606Z,38.20
2022-12-01T16:58:09.017Z,38.32
2022-12-01T17:00:36.325Z,38.44
2022-12-01T17:03:04.032Z,38.88
2022-12-01T17:05:31.326Z,38.65
2022-12-01T17:07:58.738Z,38.21
2022-12-01T17:10:27.366Z,39.08
2022-12-01T17:12:54.567Z,38.43
2022-12-01T17:15:21.846Z,38.59
2022-12-01T17:17:49.246Z,38.74
2022-12-01T17:20:16.424Z,39.07
2022-12-01T17:22:43.724Z,38.99
2022-12-01T17:25:10.926Z,38.66
2022-12-01T17:27:39.985Z,38.72
2022-12-01T17:30:08.747Z,38.86
2022-12-01T17:32:35.986Z,38.69
2022-12-01T17:35:03.252Z,38.53
2022-12-01T17:37:30.424Z,39.34
2022-12-01T17:39:57.600Z,39.04
2022-12-01T17:42:24.713Z,38.71
2022-12-01T17:44:53.325Z,39.34
2022-12-01T17:47:20.511Z,39.49
2022-12-01T17:49:47.827Z,38.70
2022-12-01T17:52:15.103Z,38.51
2022-12-01T17:54:42.369Z,39.24
2022-12-01T17:57:09.485Z,39.11
2022-12-01T17:59:37.007Z,39.16
2022-12-01T18:02:06.387Z,39.33
2022-12-01T18:04:33.859Z,39.44
2022-12-01T18:07:01.309Z,39.46
2022-12-01T18:09:28.485Z,38.87
2022-12-01T18:11:56.547Z,39.04
2022-12-01T18:14:24.749Z,38.99
2022-12-01T18:16:52.205Z,39.26
2022-12-01T18:19:21.127Z,39.60
2022-12-01T18:21:48.686Z,40.12
2022-12-01T18:24:15.844Z,39.83
2022-12-01T18:26:42.984Z,39.49
2022-12-01T18:29:13.607Z,39.17
2022-12-01T18:31:40.732Z,39.00
2022-12-01T18:34:08.345Z,38.82
2022-12-01T18:36:39.585Z,39.00
2022-12-01T18:39:09.226Z,39.05
2022-12-01T18:41:36.426Z,39.66
2022-12-01T18:44:04.125Z,39.68
2022-12-01T18:46:31.815Z,38.82
2022-12-01T18:48:59.446Z,39.76
2022-12-01T18:51:27.845Z,40.20
2022-12-01T18:53:58.046Z,38.70
2022-12-01T18:56:25.707Z,39.38
2022-12-01T18:58:55.085Z,39.39
2022-12-01T19:01:25.267Z,40.32
2022-12-01T19:03:54.239Z,38.51
2022-12-01T19:06:21.405Z,38.76
2022-12-01T19:08:48.571Z,39.15
2022-12-01T19:11:17.346Z,38.62
2022-12-01T19:13:45.462Z,38.94
2022-12-01T19:16:14.811Z,38.74
2022-12-01T19:18:42.922Z,39.12
2022-12-01T19:21:12.465Z,38.42
2022-12-01T19:23:40.526Z,39.07
2022-12-01T19:26:10.546Z,38.51
2022-12-01T19:28:39.023Z,38.84
2022-12-01T19:31:07.614Z,39.58
2022-12-01T19:33:34.946Z,38.84
2022-12-01T19:36:06.027Z,38.65
2022-12-01T19:38:33.422Z,39.40
2022-12-01T19:41:02.248Z,38.53
2022-12-01T19:43:29.444Z,38.80
2022-12-01T19:45:58.094Z,38.69
2022-12-01T19:48:25.702Z,38.73
2022-12-01T19:50:52.803Z,38.94
2022-12-01T19:53:20.203Z,38.85
2022-12-01T19:55:47.443Z,38.54
2022-12-01T19:58:14.464Z,38.83
2022-12-01T20:00:41.649Z,39.09
2022-12-01T20:03:10.205Z,38.51
2022-12-01T20:05:37.346Z,39.16
2022-12-01T20:08:04.955Z,38.84
2022-12-01T20:10:32.387Z,39.25
2022-12-01T20:12:59.615Z,39.09
2022-12-01T20:15:27.006Z,38.46
2022-12-01T20:17:54.145Z,38.62
2022-12-01T20:20:22.747Z,38.25
2022-12-01T20:22:49.805Z,38.54
2022-12-01T20:25:17.045Z,38.42
2022-12-01T20:27:44.186Z,38.18
2022-12-01T20:30:13.524Z,38.61
2022-12-01T20:32:40.686Z,38.77
2022-12-01T20:35:08.667Z,38.16
2022-12-01T20:37:37.289Z,38.95
2022-12-01T20:40:05.386Z,38.91
2022-12-01T20:42:32.447Z,38.78
2022-12-01T20:44:59.674Z,53.71
2022-12-01T20:47:27.264Z,37.19
2022-12-01T20:49:58.328Z,33.97
2022-12-01T20:52:25.813Z,27.06
2022-12-01T20:54:54.350Z,29.53
2022-12-01T20:57:21.551Z,30.57
2022-12-01T20:59:48.846Z,31.41
2022-12-01T21:02:16.669Z,32.31
2022-12-01T21:04:44.108Z,34.07
2022-12-01T21:07:11.265Z,34.51
2022-12-01T21:09:38.487Z,35.18
2022-12-01T21:12:14.404Z,35.01
2022-12-01T21:14:47.872Z,35.51
2022-12-01T21:17:28.524Z,36.46
2022-12-01T21:20:03.051Z,37.06
2022-12-01T21:22:31.463Z,37.11
2022-12-01T21:25:07.367Z,37.02
2022-12-01T21:27:36.048Z,37.84
2022-12-01T21:30:15.683Z,37.93
2022-12-01T21:32:44.653Z,37.35
2022-12-01T21:35:18.131Z,37.92
2022-12-01T21:37:47.029Z,37.84
2022-12-01T21:40:17.264Z,38.06
2022-12-01T21:42:45.842Z,37.66
2022-12-01T21:45:19.164Z,37.87
2022-12-01T21:47:46.294Z,38.23
2022-12-01T21:50:19.871Z,38.08
2022-12-01T21:52:48.362Z,37.80
2022-12-01T21:55:34.940Z,38.16
2022-12-01T21:58:25.263Z,37.84
2022-12-01T22:00:54.382Z,37.68
2022-12-01T22:03:31.222Z,37.87
2022-12-01T22:06:28.137Z,37.71
2022-12-01T22:08:51.722Z,38.28
2022-12-01T22:11:21.612Z,37.73
2022-12-01T22:13:55.101Z,38.32
2022-12-01T22:16:28.763Z,37.70
2022-12-01T22:18:58.441Z,37.60
2022-12-01T22:21:40.020Z,37.40
2022-12-01T22:24:36.900Z,38.04
2022-12-01T22:27:19.180Z,38.27
2022-12-01T22:29:51.160Z,37.97
2022-12-01T22:32:34.221Z,37.43
2022-12-01T22:35:23.401Z,38.02
2022-12-01T22:37:52.268Z,37.54
2022-12-01T22:40:35.828Z,37.19
2022-12-01T22:43:22.023Z,37.61
2022-12-01T22:46:12.217Z,37.93
2022-12-01T22:48:41.737Z,37.95
2022-12-01T22:51:21.802Z,37.84
2022-12-01T22:53:51.900Z,37.05
2022-12-01T22:56:29.341Z,37.45
2022-12-01T22:58:57.004Z,37.33
2022-12-01T23:01:29.899Z,37.48
2022-12-01T23:04:18.894Z,37.00
2022-12-01T23:06:59.602Z,36.86
2022-12-01T23:09:32.321Z,37.28
2022-12-01T23:12:14.181Z,37.85
2022-12-01T23:14:45.288Z,37.78
2022-12-01T23:17:20.902Z,37.51
2022-12-01T23:19:49.600Z,36.83
2022-12-01T23:22:16.861Z,37.13
2022-12-01T23:24:44.760Z,37.36
2022-12-01T23:27:12.800Z,36.70
2022-12-01T23:29:40.112Z,36.74
2022-12-01T23:32:07.660Z,37.04
2022-12-01T23:34:36.662Z,37.01
2022-12-01T23:37:04.099Z,36.66
2022-12-01T23:39:35.382Z,37.70
2022-12-01T23:42:03.660Z,36.32
2022-12-01T23:44:39.643Z,37.25
2022-12-01T23:47:16.841Z,37.04
2022-12-01T23:49:47.821Z,36.87
2022-12-01T23:52:20.176Z,36.80
2022-12-01T23:54:48.095Z,37.49
2022-12-01T23:57:25.182Z,36.73
2022-12-01T23:59:56.643Z,36.49
